sensor_id;sensor_type;location;lat;lon;timestamp;pressure;altitude;pressure_sealevel;temperature;humidity
70009;BME280;59542;37.950;-122.338;2022-10-15T00:01:50;100667.84;;;15.92;72.71
70009;BME280;59542;37.950;-122.338;2022-10-15T00:04:16;100659.56;;;15.81;73.57
70009;BME280;59542;37.950;-122.338;2022-10-15T00:06:42;100659.81;;;15.63;74.12
70009;BME280;59542;37.950;-122.338;2022-10-15T00:09:09;100668.44;;;15.77;73.94
70009;BME280;59542;37.950;-122.338;2022-10-15T00:11:35;100668.03;;;15.56;74.07
70009;BME280;59542;37.950;-122.338;2022-10-15T00:14:01;100654.72;;;15.50;75.51
70009;BME280;59542;37.950;-122.338;2022-10-15T00:16:28;100658.06;;;15.57;75.10
70009;BME280;59542;37.950;-122.338;2022-10-15T00:18:55;100666.25;;;15.62;75.57
70009;BME280;59542;37.950;-122.338;2022-10-15T00:21:22;100655.13;;;15.58;75.46
70009;BME280;59542;37.950;-122.338;2022-10-15T00:23:48;100649.25;;;15.62;75.50
70009;BME280;59542;37.950;-122.338;2022-10-15T00:26:18;100653.13;;;15.66;76.02
70009;BME280;59542;37.950;-122.338;2022-10-15T00:28:45;100656.97;;;15.70;76.08
70009;BME280;59542;37.950;-122.338;2022-10-15T00:31:16;100658.75;;;15.64;76.41
70009;BME280;59542;37.950;-122.338;2022-10-15T00:33:43;100657.28;;;15.73;76.31
70009;BME280;59542;37.950;-122.338;2022-10-15T00:36:14;100662.31;;;15.53;77.26
70009;BME280;59542;37.950;-122.338;2022-10-15T00:38:41;100655.13;;;15.58;77.69
70009;BME280;59542;37.950;-122.338;2022-10-15T00:41:11;100660.25;;;15.72;77.08
70009;BME280;59542;37.950;-122.338;2022-10-15T00:43:44;100660.63;;;15.64;77.17
70009;BME280;59542;37.950;-122.338;2022-10-15T00:46:21;100657.94;;;15.64;77.74
70009;BME280;59542;37.950;-122.338;2022-10-15T00:48:54;100665.59;;;15.55;78.57
70009;BME280;59542;37.950;-122.338;2022-10-15T00:51:21;100656.00;;;15.47;79.32
70009;BME280;59542;37.950;-122.338;2022-10-15T00:53:50;100657.31;;;15.45;79.32
70009;BME280;59542;37.950;-122.338;2022-10-15T00:56:19;100665.09;;;15.58;78.86
70009;BME280;59542;37.950;-122.338;2022-10-15T00:58:48;100676.00;;;15.63;78.25
70009;BME280;59542;37.950;-122.338;2022-10-15T01:01:15;100669.19;;;15.61;78.25
70009;BME280;59542;37.950;-122.338;2022-10-15T01:03:42;100672.13;;;15.59;78.23
70009;BME280;59542;37.950;-122.338;2022-10-15T01:06:08;100671.19;;;15.37;79.31
70009;BME280;59542;37.950;-122.338;2022-10-15T01:08:34;100673.66;;;15.38;79.45
70009;BME280;59542;37.950;-122.338;2022-10-15T01:25:54;100675.13;;;15.17;80.81
70009;BME280;59542;37.950;-122.338;2022-10-15T01:28:21;100677.03;;;15.17;80.95
70009;BME280;59542;37.950;-122.338;2022-10-15T01:30:45;100667.03;;;14.89;82.05
70009;BME280;59542;37.950;-122.338;2022-10-15T01:33:42;100673.94;;;14.85;82.66
70009;BME280;59542;37.950;-122.338;2022-10-15T01:36:24;100670.66;;;14.94;82.06
70009;BME280;59542;37.950;-122.338;2022-10-15T01:38:57;100680.25;;;14.90;82.38
70009;BME280;59542;37.950;-122.338;2022-10-15T01:44:33;100681.22;;;14.84;82.49
70009;BME280;59542;37.950;-122.338;2022-10-15T01:46:58;100678.94;;;14.93;82.20
70009;BME280;59542;37.950;-122.338;2022-10-15T01:49:32;100681.78;;;14.86;83.05
70009;BME280;59542;37.950;-122.338;2022-10-15T01:52:04;100694.19;;;14.87;83.04
70009;BME280;59542;37.950;-122.338;2022-10-15T01:54:31;100695.41;;;14.79;83.31
70009;BME280;59542;37.950;-122.338;2022-10-15T01:56:58;100696.22;;;14.80;83.39
70009;BME280;59542;37.950;-122.338;2022-10-15T01:59:28;100702.38;;;14.92;82.93
70009;BME280;59542;37.950;-122.338;2022-10-15T02:01:55;100699.59;;;14.87;83.09
70009;BME280;59542;37.950;-122.338;2022-10-15T02:04:25;100705.94;;;14.81;83.19
70009;BME280;59542;37.950;-122.338;2022-10-15T02:07:04;100701.97;;;14.84;83.36
70009;BME280;59542;37.950;-122.338;2022-10-15T02:15:12;100717.78;;;14.80;84.06
70009;BME280;59542;37.950;-122.338;2022-10-15T02:17:56;100724.47;;;14.77;84.16
70009;BME280;59542;37.950;-122.338;2022-10-15T02:23:06;100718.13;;;14.84;84.60
70009;BME280;59542;37.950;-122.338;2022-10-15T02:25:32;100716.38;;;14.77;84.41
70009;BME280;59542;37.950;-122.338;2022-10-15T02:28:02;100722.69;;;14.60;84.74
70009;BME280;59542;37.950;-122.338;2022-10-15T02:30:30;100723.31;;;14.62;85.18
70009;BME280;59542;37.950;-122.338;2022-10-15T02:32:58;100726.94;;;14.56;85.78
70009;BME280;59542;37.950;-122.338;2022-10-15T02:35:25;100722.56;;;14.43;86.38
70009;BME280;59542;37.950;-122.338;2022-10-15T02:37:53;100725.63;;;14.46;86.40
70009;BME280;59542;37.950;-122.338;2022-10-15T02:40:26;100717.44;;;14.53;86.23
70009;BME280;59542;37.950;-122.338;2022-10-15T02:42:53;100728.22;;;14.53;86.21
70009;BME280;59542;37.950;-122.338;2022-10-15T02:45:20;100736.19;;;14.48;86.53
70009;BME280;59542;37.950;-122.338;2022-10-15T02:47:47;100745.06;;;14.60;86.07
70009;BME280;59542;37.950;-122.338;2022-10-15T02:50:13;100752.56;;;14.58;86.45
70009;BME280;59542;37.950;-122.338;2022-10-15T02:52:39;100751.50;;;14.47;86.67
70009;BME280;59542;37.950;-122.338;2022-10-15T02:55:05;100755.22;;;14.46;86.25
70009;BME280;59542;37.950;-122.338;2022-10-15T02:57:32;100758.09;;;14.51;85.52
70009;BME280;59542;37.950;-122.338;2022-10-15T02:59:58;100753.84;;;14.44;86.05
70009;BME280;59542;37.950;-122.338;2022-10-15T03:02:24;100752.19;;;14.31;86.14
70009;BME280;59542;37.950;-122.338;2022-10-15T03:04:50;100771.84;;;14.43;85.40
70009;BME280;59542;37.950;-122.338;2022-10-15T03:07:17;100765.06;;;14.41;85.81
70009;BME280;59542;37.950;-122.338;2022-10-15T03:09:43;100765.19;;;14.46;85.91
70009;BME280;59542;37.950;-122.338;2022-10-15T03:12:09;100762.75;;;14.44;86.44
70009;BME280;59542;37.950;-122.338;2022-10-15T03:14:35;100764.66;;;14.56;85.87
70009;BME280;59542;37.950;-122.338;2022-10-15T03:17:02;100758.66;;;14.53;85.97
70009;BME280;59542;37.950;-122.338;2022-10-15T03:19:28;100768.97;;;14.57;86.02
70009;BME280;59542;37.950;-122.338;2022-10-15T03:21:54;100769.09;;;14.62;85.53
70009;BME280;59542;37.950;-122.338;2022-10-15T03:24:20;100768.69;;;14.46;85.84
70009;BME280;59542;37.950;-122.338;2022-10-15T03:26:46;100778.00;;;14.50;85.82
70009;BME280;59542;37.950;-122.338;2022-10-15T03:29:13;100781.50;;;14.63;85.33
70009;BME280;59542;37.950;-122.338;2022-10-15T03:31:39;100779.16;;;14.55;85.71
70009;BME280;59542;37.950;-122.338;2022-10-15T03:34:05;100773.88;;;14.60;85.31
70009;BME280;59542;37.950;-122.338;2022-10-15T03:36:32;100783.03;;;14.59;85.38
70009;BME280;59542;37.950;-122.338;2022-10-15T03:38:58;100770.72;;;14.51;85.22
70009;BME280;59542;37.950;-122.338;2022-10-15T03:41:24;100775.31;;;14.50;85.79
70009;BME280;59542;37.950;-122.338;2022-10-15T03:43:50;100780.91;;;14.49;85.90
70009;BME280;59542;37.950;-122.338;2022-10-15T03:46:16;100787.91;;;14.38;86.31
70009;BME280;59542;37.950;-122.338;2022-10-15T03:48:43;100792.81;;;14.41;85.96
70009;BME280;59542;37.950;-122.338;2022-10-15T03:51:09;100800.59;;;14.49;85.69
70009;BME280;59542;37.950;-122.338;2022-10-15T03:53:35;100794.72;;;14.52;84.93
70009;BME280;59542;37.950;-122.338;2022-10-15T03:56:05;100798.72;;;14.50;85.15
70009;BME280;59542;37.950;-122.338;2022-10-15T03:58:31;100792.84;;;14.53;85.51
70009;BME280;59542;37.950;-122.338;2022-10-15T04:00:57;100801.53;;;14.55;85.43
70009;BME280;59542;37.950;-122.338;2022-10-15T04:03:24;100797.31;;;14.47;85.68
70009;BME280;59542;37.950;-122.338;2022-10-15T04:05:51;100807.25;;;14.59;85.29
70009;BME280;59542;37.950;-122.338;2022-10-15T04:08:18;100809.72;;;14.60;85.11
70009;BME280;59542;37.950;-122.338;2022-10-15T04:10:45;100808.69;;;14.73;84.27
70009;BME280;59542;37.950;-122.338;2022-10-15T04:13:11;100813.84;;;14.63;84.77
70009;BME280;59542;37.950;-122.338;2022-10-15T04:15:40;100804.47;;;14.77;84.06
70009;BME280;59542;37.950;-122.338;2022-10-15T04:18:06;100811.84;;;14.82;83.87
70009;BME280;59542;37.950;-122.338;2022-10-15T04:20:32;100811.72;;;14.65;84.11
70009;BME280;59542;37.950;-122.338;2022-10-15T04:22:59;100819.09;;;14.58;84.54
70009;BME280;59542;37.950;-122.338;2022-10-15T04:25:25;100820.28;;;14.73;83.69
70009;BME280;59542;37.950;-122.338;2022-10-15T04:27:51;100818.03;;;14.82;83.39
70009;BME280;59542;37.950;-122.338;2022-10-15T04:30:18;100822.28;;;14.78;83.32
70009;BME280;59542;37.950;-122.338;2022-10-15T04:32:44;100819.34;;;14.91;82.84
70009;BME280;59542;37.950;-122.338;2022-10-15T04:35:11;100828.13;;;14.75;83.76
70009;BME280;59542;37.950;-122.338;2022-10-15T04:37:37;100838.91;;;14.87;82.99
70009;BME280;59542;37.950;-122.338;2022-10-15T04:40:03;100838.44;;;14.78;82.87
70009;BME280;59542;37.950;-122.338;2022-10-15T04:42:30;100845.34;;;14.86;82.80
70009;BME280;59542;37.950;-122.338;2022-10-15T04:44:56;100851.34;;;14.99;82.38
70009;BME280;59542;37.950;-122.338;2022-10-15T04:47:22;100858.69;;;15.04;82.28
70009;BME280;59542;37.950;-122.338;2022-10-15T04:49:49;100855.91;;;15.11;82.02
70009;BME280;59542;37.950;-122.338;2022-10-15T04:52:15;100866.53;;;14.82;82.72
70009;BME280;59542;37.950;-122.338;2022-10-15T04:54:41;100873.13;;;14.86;82.84
70009;BME280;59542;37.950;-122.338;2022-10-15T04:57:08;100874.66;;;14.94;82.53
70009;BME280;59542;37.950;-122.338;2022-10-15T04:59:34;100879.31;;;14.98;82.29
70009;BME280;59542;37.950;-122.338;2022-10-15T05:02:00;100889.78;;;15.07;81.71
70009;BME280;59542;37.950;-122.338;2022-10-15T05:04:26;100886.59;;;15.10;81.79
70009;BME280;59542;37.950;-122.338;2022-10-15T05:06:52;100881.81;;;15.12;81.70
70009;BME280;59542;37.950;-122.338;2022-10-15T05:09:19;100880.16;;;15.22;80.97
70009;BME280;59542;37.950;-122.338;2022-10-15T05:11:45;100878.16;;;15.18;80.80
70009;BME280;59542;37.950;-122.338;2022-10-15T05:14:11;100883.91;;;15.33;80.38
70009;BME280;59542;37.950;-122.338;2022-10-15T05:16:37;100880.84;;;15.29;80.29
70009;BME280;59542;37.950;-122.338;2022-10-15T05:19:05;100880.50;;;15.26;80.36
70009;BME280;59542;37.950;-122.338;2022-10-15T05:21:33;100886.25;;;15.29;80.21
70009;BME280;59542;37.950;-122.338;2022-10-15T05:24:00;100886.00;;;15.31;79.91
70009;BME280;59542;37.950;-122.338;2022-10-15T05:26:28;100894.72;;;15.21;80.37
70009;BME280;59542;37.950;-122.338;2022-10-15T05:28:56;100891.75;;;15.35;79.89
70009;BME280;59542;37.950;-122.338;2022-10-15T05:31:24;100897.16;;;15.23;80.29
70009;BME280;59542;37.950;-122.338;2022-10-15T05:33:52;100895.50;;;15.34;80.39
70009;BME280;59542;37.950;-122.338;2022-10-15T05:38:48;100900.53;;;15.30;79.79
70009;BME280;59542;37.950;-122.338;2022-10-15T05:41:15;100899.22;;;15.56;78.64
70009;BME280;59542;37.950;-122.338;2022-10-15T05:43:41;100906.06;;;15.35;79.64
70009;BME280;59542;37.950;-122.338;2022-10-15T05:46:08;100897.16;;;15.23;79.84
70009;BME280;59542;37.950;-122.338;2022-10-15T05:48:34;100898.78;;;15.36;79.67
70009;BME280;59542;37.950;-122.338;2022-10-15T05:51:02;100890.56;;;15.42;79.06
70009;BME280;59542;37.950;-122.338;2022-10-15T05:53:28;100887.19;;;15.35;79.48
70009;BME280;59542;37.950;-122.338;2022-10-15T05:55:55;100897.00;;;15.41;79.04
70009;BME280;59542;37.950;-122.338;2022-10-15T05:58:21;100892.13;;;15.38;79.32
70009;BME280;59542;37.950;-122.338;2022-10-15T06:00:57;100897.50;;;15.38;79.06
70009;BME280;59542;37.950;-122.338;2022-10-15T06:03:24;100901.81;;;15.51;78.50
70009;BME280;59542;37.950;-122.338;2022-10-15T06:05:51;100899.72;;;15.41;78.86
70009;BME280;59542;37.950;-122.338;2022-10-15T06:08:18;100898.31;;;15.39;78.97
70009;BME280;59542;37.950;-122.338;2022-10-15T06:10:45;100904.03;;;15.42;79.09
70009;BME280;59542;37.950;-122.338;2022-10-15T06:13:11;100909.94;;;15.39;79.27
70009;BME280;59542;37.950;-122.338;2022-10-15T06:15:39;100909.69;;;15.29;79.69
70009;BME280;59542;37.950;-122.338;2022-10-15T06:18:05;100910.28;;;15.31;79.60
70009;BME280;59542;37.950;-122.338;2022-10-15T06:20:32;100914.97;;;15.24;79.80
70009;BME280;59542;37.950;-122.338;2022-10-15T06:23:01;100912.84;;;15.38;79.39
70009;BME280;59542;37.950;-122.338;2022-10-15T06:25:28;100911.06;;;15.43;79.32
70009;BME280;59542;37.950;-122.338;2022-10-15T06:27:54;100913.66;;;15.26;79.87
70009;BME280;59542;37.950;-122.338;2022-10-15T06:30:20;100908.75;;;15.35;80.42
70009;BME280;59542;37.950;-122.338;2022-10-15T06:32:51;100912.50;;;15.34;80.58
70009;BME280;59542;37.950;-122.338;2022-10-15T06:35:19;100910.16;;;15.26;81.21
70009;BME280;59542;37.950;-122.338;2022-10-15T06:37:46;100904.66;;;15.32;80.63
70009;BME280;59542;37.950;-122.338;2022-10-15T06:40:13;100899.13;;;15.39;80.59
70009;BME280;59542;37.950;-122.338;2022-10-15T06:42:39;100896.44;;;15.39;80.52
70009;BME280;59542;37.950;-122.338;2022-10-15T06:45:06;100894.81;;;15.38;80.86
70009;BME280;59542;37.950;-122.338;2022-10-15T06:47:34;100898.41;;;15.32;81.08
70009;BME280;59542;37.950;-122.338;2022-10-15T06:50:01;100896.47;;;15.27;81.11
70009;BME280;59542;37.950;-122.338;2022-10-15T06:52:28;100900.09;;;15.33;80.87
70009;BME280;59542;37.950;-122.338;2022-10-15T06:54:55;100895.25;;;15.35;80.79
70009;BME280;59542;37.950;-122.338;2022-10-15T06:57:21;100896.56;;;15.21;81.43
70009;BME280;59542;37.950;-122.338;2022-10-15T06:59:50;100897.16;;;15.35;80.75
70009;BME280;59542;37.950;-122.338;2022-10-15T07:02:17;100902.78;;;15.33;81.17
70009;BME280;59542;37.950;-122.338;2022-10-15T07:04:47;100889.41;;;15.26;81.11
70009;BME280;59542;37.950;-122.338;2022-10-15T07:07:13;100888.25;;;15.34;80.85
70009;BME280;59542;37.950;-122.338;2022-10-15T07:09:40;100893.63;;;15.34;80.83
70009;BME280;59542;37.950;-122.338;2022-10-15T07:12:06;100889.50;;;15.43;80.63
70009;BME280;59542;37.950;-122.338;2022-10-15T07:14:32;100891.78;;;15.23;80.62
70009;BME280;59542;37.950;-122.338;2022-10-15T07:16:58;100886.59;;;15.45;80.18
70009;BME280;59542;37.950;-122.338;2022-10-15T07:19:24;100887.97;;;15.47;79.86
70009;BME280;59542;37.950;-122.338;2022-10-15T07:21:53;100888.00;;;15.36;80.23
70009;BME280;59542;37.950;-122.338;2022-10-15T07:24:19;100890.66;;;15.47;79.97
70009;BME280;59542;37.950;-122.338;2022-10-15T07:26:48;100888.78;;;15.59;79.10
70009;BME280;59542;37.950;-122.338;2022-10-15T07:29:15;100889.84;;;15.47;79.75
70009;BME280;59542;37.950;-122.338;2022-10-15T07:31:41;100889.41;;;15.38;80.01
70009;BME280;59542;37.950;-122.338;2022-10-15T07:34:08;100883.53;;;15.41;79.85
70009;BME280;59542;37.950;-122.338;2022-10-15T07:36:34;100883.19;;;15.49;79.89
70009;BME280;59542;37.950;-122.338;2022-10-15T07:39:00;100886.34;;;15.46;80.11
70009;BME280;59542;37.950;-122.338;2022-10-15T07:41:26;100880.25;;;15.63;80.08
70009;BME280;59542;37.950;-122.338;2022-10-15T07:43:52;100877.16;;;15.59;80.39
70009;BME280;59542;37.950;-122.338;2022-10-15T07:46:19;100882.09;;;15.62;80.33
70009;BME280;59542;37.950;-122.338;2022-10-15T07:48:45;100883.63;;;15.58;80.36
70009;BME280;59542;37.950;-122.338;2022-10-15T07:51:11;100887.41;;;15.45;80.73
70009;BME280;59542;37.950;-122.338;2022-10-15T07:53:38;100887.41;;;15.45;80.77
70009;BME280;59542;37.950;-122.338;2022-10-15T07:56:10;100890.31;;;15.55;81.01
70009;BME280;59542;37.950;-122.338;2022-10-15T07:58:38;100881.63;;;15.53;81.04
70009;BME280;59542;37.950;-122.338;2022-10-15T08:01:06;100895.59;;;15.50;81.62
70009;BME280;59542;37.950;-122.338;2022-10-15T08:03:33;100897.69;;;15.48;81.83
70009;BME280;59542;37.950;-122.338;2022-10-15T08:06:00;100891.16;;;15.44;81.98
70009;BME280;59542;37.950;-122.338;2022-10-15T08:08:26;100899.59;;;15.36;82.73
70009;BME280;59542;37.950;-122.338;2022-10-15T08:10:53;100906.31;;;15.34;82.80
70009;BME280;59542;37.950;-122.338;2022-10-15T08:13:19;100900.78;;;15.40;82.32
70009;BME280;59542;37.950;-122.338;2022-10-15T08:15:46;100907.13;;;15.34;nan
70009;BME280;59542;37.950;-122.338;2022-10-15T08:18:13;100904.31;;;15.29;82.36
70009;BME280;59542;37.950;-122.338;2022-10-15T08:20:39;100902.91;;;15.38;81.52
70009;BME280;59542;37.950;-122.338;2022-10-15T08:23:13;100909.44;;;15.42;81.33
70009;BME280;59542;37.950;-122.338;2022-10-15T08:25:40;100908.75;;;15.35;81.76
70009;BME280;59542;37.950;-122.338;2022-10-15T08:28:07;100907.00;;;15.41;82.00
70009;BME280;59542;37.950;-122.338;2022-10-15T08:30:37;100914.03;;;15.42;81.73
70009;BME280;59542;37.950;-122.338;2022-10-15T08:33:03;100904.31;;;15.29;82.22
70009;BME280;59542;37.950;-122.338;2022-10-15T08:35:29;100901.59;;;15.29;82.34
70009;BME280;59542;37.950;-122.338;2022-10-15T08:38:00;100902.78;;;15.33;82.47
70009;BME280;59542;37.950;-122.338;2022-10-15T08:40:28;100910.06;;;15.32;82.41
70009;BME280;59542;37.950;-122.338;2022-10-15T08:42:54;100903.81;;;15.20;82.80
70009;BME280;59542;37.950;-122.338;2022-10-15T08:45:28;100911.81;;;15.27;81.87
70009;BME280;59542;37.950;-122.338;2022-10-15T08:48:05;100921.44;;;15.23;81.99
70009;BME280;59542;37.950;-122.338;2022-10-15T08:53:15;100932.91;;;15.07;83.02
70009;BME280;59542;37.950;-122.338;2022-10-15T08:55:47;100931.53;;;15.16;82.64
70009;BME280;59542;37.950;-122.338;2022-10-15T09:01:00;100932.53;;;15.26;82.13
70009;BME280;59542;37.950;-122.338;2022-10-15T09:03:39;100938.19;;;15.25;82.01
70009;BME280;59542;37.950;-122.338;2022-10-15T09:06:19;100940.88;;;15.13;82.43
70009;BME280;59542;37.950;-122.338;2022-10-15T09:14:23;100943.00;;;15.11;82.58
70009;BME280;59542;37.950;-122.338;2022-10-15T09:16:50;100955.97;;;15.02;82.72
70009;BME280;59542;37.950;-122.338;2022-10-15T09:19:21;100953.66;;;15.06;nan
70009;BME280;59542;37.950;-122.338;2022-10-15T09:21:50;100949.78;;;15.02;83.35
70009;BME280;59542;37.950;-122.338;2022-10-15T09:24:24;100948.00;;;14.96;83.54
70009;BME280;59542;37.950;-122.338;2022-10-15T09:32:49;100959.72;;;14.90;83.14
70009;BME280;59542;37.950;-122.338;2022-10-15T09:43:30;100979.03;;;14.87;82.16
70009;BME280;59542;37.950;-122.338;2022-10-15T09:46:01;100972.13;;;14.91;81.64
70009;BME280;59542;37.950;-122.338;2022-10-15T09:48:32;100979.28;;;14.85;82.20
70009;BME280;59542;37.950;-122.338;2022-10-15T09:51:05;100976.13;;;14.88;81.91
70009;BME280;59542;37.950;-122.338;2022-10-15T09:56:25;100972.72;;;14.93;81.89
70009;BME280;59542;37.950;-122.338;2022-10-15T09:58:56;100975.34;;;14.99;81.17
70009;BME280;59542;37.950;-122.338;2022-10-15T10:01:28;100976.16;;;15.00;80.88
70009;BME280;59542;37.950;-122.338;2022-10-15T10:04:11;100970.50;;;14.90;81.33
70009;BME280;59542;37.950;-122.338;2022-10-15T10:09:16;100970.50;;;14.90;81.19
70009;BME280;59542;37.950;-122.338;2022-10-15T10:14:24;100967.03;;;14.71;81.46
70009;BME280;59542;37.950;-122.338;2022-10-15T10:19:37;100963.34;;;14.84;80.58
70009;BME280;59542;37.950;-122.338;2022-10-15T10:22:15;100971.78;;;14.87;80.86
70009;BME280;59542;37.950;-122.338;2022-10-15T10:24:43;100965.34;;;14.88;80.58
70009;BME280;59542;37.950;-122.338;2022-10-15T10:27:22;100971.06;;;14.80;81.02
70009;BME280;59542;37.950;-122.338;2022-10-15T10:29:58;100964.59;;;14.69;81.21
70009;BME280;59542;37.950;-122.338;2022-10-15T10:32:30;100966.72;;;14.79;81.01
70009;BME280;59542;37.950;-122.338;2022-10-15T10:34:59;100966.50;;;14.81;80.56
70009;BME280;59542;37.950;-122.338;2022-10-15T10:37:27;100959.91;;;14.76;81.15
70009;BME280;59542;37.950;-122.338;2022-10-15T10:39:59;100974.69;;;14.86;81.40
70009;BME280;59542;37.950;-122.338;2022-10-15T10:42:34;100965.44;;;14.82;81.16
70009;BME280;59542;37.950;-122.338;2022-10-15T10:45:15;100959.47;;;14.79;80.86
70009;BME280;59542;37.950;-122.338;2022-10-15T10:47:42;100967.19;;;14.88;80.65
70009;BME280;59542;37.950;-122.338;2022-10-15T10:50:32;100970.13;;;14.86;80.81
70009;BME280;59542;37.950;-122.338;2022-10-15T10:53:23;100969.09;;;14.99;80.67
70009;BME280;59542;37.950;-122.338;2022-10-15T10:55:51;100965.94;;;15.02;80.46
70009;BME280;59542;37.950;-122.338;2022-10-15T10:58:21;100971.91;;;15.04;80.34
70009;BME280;59542;37.950;-122.338;2022-10-15T11:00:50;100960.31;;;14.92;80.94
70009;BME280;59542;37.950;-122.338;2022-10-15T11:05:58;100971.22;;;14.97;80.26
70009;BME280;59542;37.950;-122.338;2022-10-15T11:08:40;100974.59;;;14.92;80.50
70009;BME280;59542;37.950;-122.338;2022-10-15T11:13:43;100979.97;;;14.92;79.81
70009;BME280;59542;37.950;-122.338;2022-10-15T11:16:21;100981.44;;;15.07;79.18
70009;BME280;59542;37.950;-122.338;2022-10-15T11:19:19;100981.63;;;14.93;79.56
70009;BME280;59542;37.950;-122.338;2022-10-15T11:22:09;100986.53;;;14.85;79.51
70009;BME280;59542;37.950;-122.338;2022-10-15T11:24:48;100978.72;;;14.95;79.45
70009;BME280;59542;37.950;-122.338;2022-10-15T11:30:19;100982.94;;;15.02;79.16
70009;BME280;59542;37.950;-122.338;2022-10-15T11:35:49;100982.81;;;15.09;78.74
70009;BME280;59542;37.950;-122.338;2022-10-15T11:55:23;101002.44;;;15.16;78.17
70009;BME280;59542;37.950;-122.338;2022-10-15T11:57:58;100995.84;;;15.12;78.23
70009;BME280;59542;37.950;-122.338;2022-10-15T12:00:29;101002.78;;;15.20;78.03
70009;BME280;59542;37.950;-122.338;2022-10-15T12:03:34;101001.34;;;15.05;79.02
70009;BME280;59542;37.950;-122.338;2022-10-15T12:05:59;100994.78;;;15.13;78.55
70009;BME280;59542;37.950;-122.338;2022-10-15T12:08:33;100990.34;;;15.07;78.71
70009;BME280;59542;37.950;-122.338;2022-10-15T12:16:12;101004.25;;;15.04;78.75
70009;BME280;59542;37.950;-122.338;2022-10-15T12:19:27;101004.53;;;15.14;78.02
70009;BME280;59542;37.950;-122.338;2022-10-15T12:37:40;101002.06;;;15.13;77.60
70009;BME280;59542;37.950;-122.338;2022-10-15T12:42:53;101010.84;;;15.08;78.21
70009;BME280;59542;37.950;-122.338;2022-10-15T12:50:31;101002.06;;;15.24;77.59
70009;BME280;59542;37.950;-122.338;2022-10-15T12:55:34;101009.81;;;15.21;77.60
70009;BME280;59542;37.950;-122.338;2022-10-15T12:58:03;101011.47;;;15.22;77.96
70009;BME280;59542;37.950;-122.338;2022-10-15T13:00:35;101007.84;;;15.40;77.29
70009;BME280;59542;37.950;-122.338;2022-10-15T13:05:39;101008.16;;;15.20;77.86
70009;BME280;59542;37.950;-122.338;2022-10-15T13:08:15;101011.47;;;15.22;77.97
70009;BME280;59542;37.950;-122.338;2022-10-15T13:10:53;101016.50;;;15.18;77.98
70009;BME280;59542;37.950;-122.338;2022-10-15T13:13:24;101018.38;;;15.18;78.28
70009;BME280;59542;37.950;-122.338;2022-10-15T13:15:58;101015.00;;;15.34;77.53
70009;BME280;59542;37.950;-122.338;2022-10-15T13:18:27;101022.16;;;15.40;77.26
70009;BME280;59542;37.950;-122.338;2022-10-15T13:20:55;101023.41;;;15.14;78.52
70009;BME280;59542;37.950;-122.338;2022-10-15T13:23:25;101026.69;;;15.16;78.51
70009;BME280;59542;37.950;-122.338;2022-10-15T13:26:12;101029.63;;;15.26;78.10
70009;BME280;59542;37.950;-122.338;2022-10-15T13:28:41;101036.22;;;15.30;78.37
70009;BME280;59542;37.950;-122.338;2022-10-15T13:31:31;101032.09;;;15.28;77.76
70009;BME280;59542;37.950;-122.338;2022-10-15T13:34:25;101031.28;;;15.27;77.91
70009;BME280;59542;37.950;-122.338;2022-10-15T13:36:53;101037.50;;;15.28;77.88
70009;BME280;59542;37.950;-122.338;2022-10-15T13:42:12;101043.56;;;15.12;78.46
70009;BME280;59542;37.950;-122.338;2022-10-15T13:44:38;101040.38;;;15.15;78.08
70009;BME280;59542;37.950;-122.338;2022-10-15T13:47:24;101045.91;;;15.20;78.30
70009;BME280;59542;37.950;-122.338;2022-10-15T13:49:50;101051.94;;;15.34;78.18
70009;BME280;59542;37.950;-122.338;2022-10-15T13:52:16;101046.03;;;15.25;78.44
70009;BME280;59542;37.950;-122.338;2022-10-15T13:54:46;101049.31;;;15.15;78.73
70009;BME280;59542;37.950;-122.338;2022-10-15T13:57:14;101049.84;;;14.94;79.69
70009;BME280;59542;37.950;-122.338;2022-10-15T13:59:44;101046.25;;;15.12;78.89
70009;BME280;59542;37.950;-122.338;2022-10-15T14:02:11;101042.50;;;15.13;78.94
70009;BME280;59542;37.950;-122.338;2022-10-15T14:04:38;101044.66;;;15.22;78.61
70009;BME280;59542;37.950;-122.338;2022-10-15T14:07:22;101041.16;;;14.92;79.32
70009;BME280;59542;37.950;-122.338;2022-10-15T14:09:51;101049.41;;;15.09;78.96
70009;BME280;59542;37.950;-122.338;2022-10-15T14:12:18;101040.97;;;15.05;78.90
70009;BME280;59542;37.950;-122.338;2022-10-15T14:14:45;101049.28;;;15.03;79.10
70009;BME280;59542;37.950;-122.338;2022-10-15T14:17:22;101047.63;;;15.02;78.99
70009;BME280;59542;37.950;-122.338;2022-10-15T14:19:56;101050.53;;;14.89;79.75
70009;BME280;59542;37.950;-122.338;2022-10-15T14:22:26;101054.09;;;15.01;79.22
70009;BME280;59542;37.950;-122.338;2022-10-15T14:24:54;101045.06;;;15.08;79.11
70009;BME280;59542;37.950;-122.338;2022-10-15T14:27:24;101050.56;;;15.01;79.00
70009;BME280;59542;37.950;-122.338;2022-10-15T14:29:52;101048.72;;;15.13;78.43
70009;BME280;59542;37.950;-122.338;2022-10-15T14:32:45;101052.09;;;15.09;78.35
70009;BME280;59542;37.950;-122.338;2022-10-15T14:35:31;101058.66;;;15.01;79.18
70009;BME280;59542;37.950;-122.338;2022-10-15T14:38:01;101062.31;;;15.07;78.62
70009;BME280;59542;37.950;-122.338;2022-10-15T14:40:28;101054.53;;;14.98;78.96
70009;BME280;59542;37.950;-122.338;2022-10-15T14:45:23;101058.09;;;15.11;78.34